sensor_id;sensor_type;location;lat;lon;timestamp;pressure;altitude;pressure_sealevel;temperature;humidity
5350;BME280;2697;42.144;24.794;2022-11-23T00:01:47;155589.00;;;11.71;100.00
5350;BME280;2697;42.144;24.794;2022-11-23T00:04:12;155611.47;;;11.80;100.00
5350;BME280;2697;42.144;24.794;2022-11-23T00:06:39;155629.91;;;11.87;100.00
5350;BME280;2697;42.144;24.794;2022-11-23T00:09:06;155661.53;;;11.99;100.00
5350;BME280;2697;42.144;24.794;2022-11-23T00:11:33;155640.50;;;11.91;100.00
5350;BME280;2697;42.144;24.794;2022-11-23T00:13:58;155660.22;;;11.99;100.00
5350;BME280;2697;42.144;24.794;2022-11-23T00:16:28;155599.56;;;11.76;100.00
5350;BME280;2697;42.144;24.794;2022-11-23T00:18:56;155607.47;;;11.79;100.00
5350;BME280;2697;42.144;24.794;2022-11-23T00:21:23;155599.56;;;11.76;100.00
5350;BME280;2697;42.144;24.794;2022-11-23T00:23:49;155593.00;;;11.73;100.00
5350;BME280;2697;42.144;24.794;2022-11-23T00:26:15;155612.78;;;11.81;100.00
5350;BME280;2697;42.144;24.794;2022-11-23T00:28:42;155589.00;;;11.71;100.00
5350;BME280;2697;42.144;24.794;2022-11-23T00:31:08;155578.47;;;11.67;100.00
5350;BME280;2697;42.144;24.794;2022-11-23T00:33:35;155598.25;;;11.75;100.00
5350;BME280;2697;42.144;24.794;2022-11-23T00:36:00;155624.66;;;11.85;100.00
5350;BME280;2697;42.144;24.794;2022-11-23T00:38:27;155641.81;;;11.92;100.00
5350;BME280;2697;42.144;24.794;2022-11-23T00:41:05;155641.81;;;11.92;100.00
5350;BME280;2697;42.144;24.794;2022-11-23T00:43:31;155647.06;;;11.94;100.00
5350;BME280;2697;42.144;24.794;2022-11-23T00:46:18;155636.50;;;11.90;100.00
5350;BME280;2697;42.144;24.794;2022-11-23T00:48:45;155598.25;;;11.75;100.00
5350;BME280;2697;42.144;24.794;2022-11-23T00:51:16;155625.97;;;11.86;100.00
5350;BME280;2697;42.144;24.794;2022-11-23T00:53:42;155577.16;;;11.67;100.00
5350;BME280;2697;42.144;24.794;2022-11-23T00:56:08;155544.22;;;11.54;100.00
5350;BME280;2697;42.144;24.794;2022-11-23T00:58:33;155557.38;;;11.59;100.00
5350;BME280;2697;42.144;24.794;2022-11-23T01:01:10;155488.84;;;11.33;100.00
5350;BME280;2697;42.144;24.794;2022-11-23T01:03:38;155492.81;;;11.34;100.00
5350;BME280;2697;42.144;24.794;2022-11-23T01:06:15;155486.22;;;11.32;100.00
5350;BME280;2697;42.144;24.794;2022-11-23T01:08:47;155509.94;;;11.41;100.00
5350;BME280;2697;42.144;24.794;2022-11-23T01:11:13;155507.31;;;11.40;100.00
5350;BME280;2697;42.144;24.794;2022-11-23T01:13:40;155509.94;;;11.41;100.00
5350;BME280;2697;42.144;24.794;2022-11-23T01:16:13;155483.59;;;11.31;100.00
5350;BME280;2697;42.144;24.794;2022-11-23T01:18:39;155496.78;;;11.36;100.00
5350;BME280;2697;42.144;24.794;2022-11-23T01:21:05;155502.06;;;11.38;100.00
5350;BME280;2697;42.144;24.794;2022-11-23T01:23:30;155491.47;;;11.34;100.00
5350;BME280;2697;42.144;24.794;2022-11-23T01:25:56;152217.75;;;11.24;100.00
5350;BME280;2697;42.144;24.794;2022-11-23T01:28:21;130635.72;;;11.19;100.00
5350;BME280;2697;42.144;24.794;2022-11-23T01:30:47;105378.25;;;11.06;100.00
5350;BME280;2697;42.144;24.794;2022-11-23T01:33:12;81033.22;;;10.82;100.00
5350;BME280;2697;42.144;24.794;2022-11-23T01:35:38;57800.31;;;10.90;100.00
5350;BME280;2697;42.144;24.794;2022-11-23T01:38:03;45982.94;;;10.84;100.00
5350;BME280;2697;42.144;24.794;2022-11-23T01:40:29;36588.53;;;10.76;100.00
5350;BME280;2697;42.144;24.794;2022-11-23T01:45:39;32756.44;;;10.73;100.00
5350;BME280;2697;42.144;24.794;2022-11-23T01:48:15;33602.09;;;10.63;100.00
5350;BME280;2697;42.144;24.794;2022-11-23T01:50:44;32628.78;;;10.67;100.00
5350;BME280;2697;42.144;24.794;2022-11-23T01:53:10;31632.38;;;10.72;100.00
5350;BME280;2697;42.144;24.794;2022-11-23T01:55:36;30666.72;;;10.70;100.00
5350;BME280;2697;42.144;24.794;2022-11-23T01:58:05;27471.78;;;10.61;100.00
5350;BME280;2697;42.144;24.794;2022-11-23T02:00:32;26288.50;;;10.65;100.00
5350;BME280;2697;42.144;24.794;2022-11-23T02:02:58;25983.69;;;10.85;100.00
5350;BME280;2697;42.144;24.794;2022-11-23T02:05:32;32458.41;;;10.98;100.00
5350;BME280;2697;42.144;24.794;2022-11-23T02:08:00;35058.72;;;10.93;100.00
5350;BME280;2697;42.144;24.794;2022-11-23T02:10:27;32076.47;;;10.96;100.00
5350;BME280;2697;42.144;24.794;2022-11-23T02:12:53;31075.47;;;11.03;100.00
5350;BME280;2697;42.144;24.794;2022-11-23T02:15:19;32664.63;;;11.12;100.00
5350;BME280;2697;42.144;24.794;2022-11-23T02:17:45;38676.22;;;11.31;100.00
5350;BME280;2697;42.144;24.794;2022-11-23T02:20:16;44891.00;;;11.28;100.00
5350;BME280;2697;42.144;24.794;2022-11-23T02:28:02;33661.34;;;11.02;100.00
5350;BME280;2697;42.144;24.794;2022-11-23T02:30:30;26793.75;;;11.13;100.00
5350;BME280;2697;42.144;24.794;2022-11-23T02:32:55;25125.56;;;10.97;100.00
5350;BME280;2697;42.144;24.794;2022-11-23T02:35:21;18271.13;;;10.98;100.00
5350;BME280;2697;42.144;24.794;2022-11-23T02:37:46;14895.59;;;11.03;100.00
5350;BME280;2697;42.144;24.794;2022-11-23T02:40:31;14241.53;;;11.09;100.00
5350;BME280;2697;42.144;24.794;2022-11-23T02:42:58;13537.06;;;11.14;100.00
5350;BME280;2697;42.144;24.794;2022-11-23T02:45:32;9048.38;;;10.98;100.00
5350;BME280;2697;42.144;24.794;2022-11-23T02:47:58;6356.78;;;10.94;100.00
5350;BME280;2697;42.144;24.794;2022-11-23T02:50:23;4003.53;;;10.92;100.00
5350;BME280;2697;42.144;24.794;2022-11-23T02:52:49;980.03;;;10.80;100.00
5350;BME280;2697;42.144;24.794;2022-11-23T02:55:14;-362.41;;;10.90;100.00
5350;BME280;2697;42.144;24.794;2022-11-23T02:57:40;-27.00;;;10.76;100.00
5350;BME280;2697;42.144;24.794;2022-11-23T03:00:06;-27.16;;;10.68;100.00
5350;BME280;2697;42.144;24.794;2022-11-23T03:02:31;-362.56;;;10.76;100.00
5350;BME280;2697;42.144;24.794;2022-11-23T03:04:57;979.34;;;10.61;100.00
5350;BME280;2697;42.144;24.794;2022-11-23T03:07:22;643.31;;;10.45;100.00
5350;BME280;2697;42.144;24.794;2022-11-23T03:09:47;643.22;;;10.42;100.00
5350;BME280;2697;42.144;24.794;2022-11-23T03:12:13;307.53;;;10.33;100.00
5350;BME280;2697;42.144;24.794;2022-11-23T03:14:38;1314.00;;;10.37;100.00
5350;BME280;2697;42.144;24.794;2022-11-23T03:17:04;2990.72;;;10.20;100.00
5350;BME280;2697;42.144;24.794;2022-11-23T03:19:29;3995.69;;;9.99;100.00
5350;BME280;2697;42.144;24.794;2022-11-23T03:21:55;3658.63;;;9.79;100.00
5350;BME280;2697;42.144;24.794;2022-11-23T03:24:20;3994.72;;;9.87;100.00
5350;BME280;2697;42.144;24.794;2022-11-23T03:26:46;6342.16;;;9.75;100.00
5350;BME280;2697;42.144;24.794;2022-11-23T03:29:12;7350.34;;;9.84;100.00
5350;BME280;2697;42.144;24.794;2022-11-23T03:31:37;8691.72;;;9.73;100.00
5350;BME280;2697;42.144;24.794;2022-11-23T03:34:02;8692.53;;;9.78;100.00
5350;BME280;2697;42.144;24.794;2022-11-23T03:36:28;9028.13;;;9.77;100.00
5350;BME280;2697;42.144;24.794;2022-11-23T03:38:53;10709.94;;;9.88;100.00
5350;BME280;2697;42.144;24.794;2022-11-23T03:41:19;12391.22;;;9.91;100.00
5350;BME280;2697;42.144;24.794;2022-11-23T03:43:44;14070.88;;;9.84;100.00
5350;BME280;2697;42.144;24.794;2022-11-23T03:46:10;13397.31;;;9.80;100.00
5350;BME280;2697;42.144;24.794;2022-11-23T03:48:36;13735.69;;;9.89;100.00
5350;BME280;2697;42.144;24.794;2022-11-23T03:51:01;14746.47;;;9.95;100.00
5350;BME280;2697;42.144;24.794;2022-11-23T03:53:26;16093.16;;;9.98;100.00
5350;BME280;2697;42.144;24.794;2022-11-23T03:55:52;18110.69;;;9.90;100.00
5350;BME280;2697;42.144;24.794;2022-11-23T03:58:20;19119.25;;;9.85;100.00
5350;BME280;2697;42.144;24.794;2022-11-23T04:00:45;17434.88;;;9.82;100.00
5350;BME280;2697;42.144;24.794;2022-11-23T04:03:11;18779.34;;;9.76;100.00
5350;BME280;2697;42.144;24.794;2022-11-23T04:05:36;18441.56;;;9.72;100.00
5350;BME280;2697;42.144;24.794;2022-11-23T04:08:01;20462.75;;;9.75;100.00
5350;BME280;2697;42.144;24.794;2022-11-23T04:10:27;23495.91;;;9.76;100.00
5350;BME280;2697;42.144;24.794;2022-11-23T04:12:52;26199.00;;;9.88;100.00
5350;BME280;2697;42.144;24.794;2022-11-23T04:15:18;28903.28;;;9.97;100.00
5350;BME280;2697;42.144;24.794;2022-11-23T04:17:44;36407.50;;;9.96;100.00
5350;BME280;2697;42.144;24.794;2022-11-23T04:20:10;38846.47;;;9.90;100.00
5350;BME280;2697;42.144;24.794;2022-11-23T04:22:35;42425.94;;;9.94;100.00
5350;BME280;2697;42.144;24.794;2022-11-23T04:25:01;45373.63;;;9.98;100.00
5350;BME280;2697;42.144;24.794;2022-11-23T04:27:26;50729.41;;;9.80;100.00
5350;BME280;2697;42.144;24.794;2022-11-23T04:29:52;49440.06;;;9.86;100.00
5350;BME280;2697;42.144;24.794;2022-11-23T04:32:17;53495.88;;;9.94;100.00
5350;BME280;2697;42.144;24.794;2022-11-23T04:34:42;58745.59;;;10.04;100.00
5350;BME280;2697;42.144;24.794;2022-11-23T04:37:08;62928.91;;;10.06;100.00
5350;BME280;2697;42.144;24.794;2022-11-23T04:39:33;72356.66;;;10.02;100.00
5350;BME280;2697;42.144;24.794;2022-11-23T04:41:58;74889.88;;;10.07;100.00
5350;BME280;2697;42.144;24.794;2022-11-23T04:44:24;82997.63;;;10.10;100.00
5350;BME280;2697;42.144;24.794;2022-11-23T04:46:49;87192.75;;;10.11;100.00
5350;BME280;2697;42.144;24.794;2022-11-23T04:49:15;93508.22;;;10.19;100.00
5350;BME280;2697;42.144;24.794;2022-11-23T04:51:41;100486.47;;;10.16;100.00
5350;BME280;2697;42.144;24.794;2022-11-23T04:54:07;105061.84;;;10.18;100.00
5350;BME280;2697;42.144;24.794;2022-11-23T04:56:32;112840.50;;;10.28;100.00
5350;BME280;2697;42.144;24.794;2022-11-23T04:58:58;120062.78;;;10.21;100.00
5350;BME280;2697;42.144;24.794;2022-11-23T05:01:23;120853.56;;;10.20;100.00
5350;BME280;2697;42.144;24.794;2022-11-23T05:03:48;127188.56;;;10.34;100.00
5350;BME280;2697;42.144;24.794;2022-11-23T05:06:14;132872.03;;;10.25;100.00
5350;BME280;2697;42.144;24.794;2022-11-23T05:08:39;131914.25;;;10.23;100.00
5350;BME280;2697;42.144;24.794;2022-11-23T05:11:05;133883.34;;;10.29;100.00
5350;BME280;2697;42.144;24.794;2022-11-23T05:13:30;136777.16;;;10.31;100.00
5350;BME280;2697;42.144;24.794;2022-11-23T05:15:55;139240.50;;;10.29;100.00
5350;BME280;2697;42.144;24.794;2022-11-23T05:18:21;140519.97;;;10.28;100.00
5350;BME280;2697;42.144;24.794;2022-11-23T05:20:46;139208.53;;;10.35;100.00
5350;BME280;2697;42.144;24.794;2022-11-23T05:23:11;142934.41;;;10.34;100.00
5350;BME280;2697;42.144;24.794;2022-11-23T05:25:37;145794.53;;;10.40;100.00
5350;BME280;2697;42.144;24.794;2022-11-23T05:28:03;150165.91;;;10.38;100.00
5350;BME280;2697;42.144;24.794;2022-11-23T05:30:28;150451.66;;;10.45;100.00
5350;BME280;2697;42.144;24.794;2022-11-23T05:32:53;149871.97;;;10.46;100.00
5350;BME280;2697;42.144;24.794;2022-11-23T05:35:23;150317.63;;;10.49;100.00
5350;BME280;2697;42.144;24.794;2022-11-23T05:37:49;150294.78;;;10.48;100.00
5350;BME280;2697;42.144;24.794;2022-11-23T05:40:14;149882.69;;;10.55;100.00
5350;BME280;2697;42.144;24.794;2022-11-23T05:42:39;150632.88;;;10.60;100.00
5350;BME280;2697;42.144;24.794;2022-11-23T05:45:06;151877.78;;;10.54;100.00
5350;BME280;2697;42.144;24.794;2022-11-23T05:47:32;154135.34;;;10.65;100.00
5350;BME280;2697;42.144;24.794;2022-11-23T05:49:57;154949.97;;;10.65;100.00
5350;BME280;2697;42.144;24.794;2022-11-23T05:52:24;154926.44;;;10.68;100.00
5350;BME280;2697;42.144;24.794;2022-11-23T05:54:49;155231.00;;;10.75;100.00
5350;BME280;2697;42.144;24.794;2022-11-23T05:57:15;155351.91;;;10.80;100.00
5350;BME280;2697;42.144;24.794;2022-11-23T05:59:42;155346.59;;;10.78;100.00
5350;BME280;2697;42.144;24.794;2022-11-23T06:02:07;155322.88;;;10.69;100.00
5350;BME280;2697;42.144;24.794;2022-11-23T06:04:32;155333.44;;;10.73;100.00
5350;BME280;2697;42.144;24.794;2022-11-23T06:06:58;155347.91;;;10.78;100.00
5350;BME280;2697;42.144;24.794;2022-11-23T06:09:26;155354.53;;;10.81;100.00
5350;BME280;2697;42.144;24.794;2022-11-23T06:11:51;155387.44;;;10.94;100.00
5350;BME280;2697;42.144;24.794;2022-11-23T06:14:17;155401.94;;;10.99;100.00
5350;BME280;2697;42.144;24.794;2022-11-23T06:16:43;155417.72;;;11.05;100.00
5350;BME280;2697;42.144;24.794;2022-11-23T06:19:08;155399.31;;;10.98;100.00
5350;BME280;2697;42.144;24.794;2022-11-23T06:21:34;155433.53;;;11.11;100.00
5350;BME280;2697;42.144;24.794;2022-11-23T06:23:59;155452.00;;;11.19;100.00
5350;BME280;2697;42.144;24.794;2022-11-23T06:26:24;155411.16;;;11.03;100.00
5350;BME280;2697;42.144;24.794;2022-11-23T06:28:50;155446.69;;;11.17;100.00
5350;BME280;2697;42.144;24.794;2022-11-23T06:31:15;155445.38;;;11.16;100.00
5350;BME280;2697;42.144;24.794;2022-11-23T06:33:41;155432.22;;;11.11;100.00
5350;BME280;2697;42.144;24.794;2022-11-23T06:36:08;155479.66;;;11.29;100.00
5350;BME280;2697;42.144;24.794;2022-11-23T06:38:34;155461.19;;;11.22;100.00
5350;BME280;2697;42.144;24.794;2022-11-23T06:41:00;155459.88;;;11.22;100.00
5350;BME280;2697;42.144;24.794;2022-11-23T06:43:27;155469.09;;;11.25;100.00
5350;BME280;2697;42.144;24.794;2022-11-23T06:45:54;155449.38;;;11.18;100.00
5350;BME280;2697;42.144;24.794;2022-11-23T06:48:20;155445.38;;;11.16;100.00
5350;BME280;2697;42.144;24.794;2022-11-23T06:50:45;155482.28;;;11.30;100.00
5350;BME280;2697;42.144;24.794;2022-11-23T06:53:11;155473.09;;;11.27;100.00
5350;BME280;2697;42.144;24.794;2022-11-23T06:55:37;155477.03;;;11.28;100.00
5350;BME280;2697;42.144;24.794;2022-11-23T06:58:03;155494.13;;;11.35;100.00
5350;BME280;2697;42.144;24.794;2022-11-23T07:00:29;155490.16;;;11.33;100.00
5350;BME280;2697;42.144;24.794;2022-11-23T07:02:55;155524.47;;;11.47;100.00
5350;BME280;2697;42.144;24.794;2022-11-23T07:05:21;155519.16;;;11.45;100.00
5350;BME280;2697;42.144;24.794;2022-11-23T07:07:47;155532.34;;;11.50;100.00
5350;BME280;2697;42.144;24.794;2022-11-23T07:10:13;155533.66;;;11.50;100.00
5350;BME280;2697;42.144;24.794;2022-11-23T07:12:38;155525.78;;;11.47;100.00
5350;BME280;2697;42.144;24.794;2022-11-23T07:15:05;155517.84;;;11.44;100.00
5350;BME280;2697;42.144;24.794;2022-11-23T07:17:31;155511.25;;;11.41;100.00
5350;BME280;2697;42.144;24.794;2022-11-23T07:19:56;155563.97;;;11.62;100.00
5350;BME280;2697;42.144;24.794;2022-11-23T07:22:21;155563.97;;;11.62;100.00
5350;BME280;2697;42.144;24.794;2022-11-23T07:24:47;155583.72;;;11.69;100.00
5350;BME280;2697;42.144;24.794;2022-11-23T07:27:12;155567.97;;;11.63;100.00
5350;BME280;2697;42.144;24.794;2022-11-23T07:29:38;155587.69;;;11.71;100.00
5350;BME280;2697;42.144;24.794;2022-11-23T07:32:04;155586.38;;;11.70;100.00
5350;BME280;2697;42.144;24.794;2022-11-23T07:34:30;155600.88;;;11.76;100.00
5350;BME280;2697;42.144;24.794;2022-11-23T07:36:56;155614.09;;;11.81;100.00
5350;BME280;2697;42.144;24.794;2022-11-23T07:39:21;155633.88;;;11.89;100.00
5350;BME280;2697;42.144;24.794;2022-11-23T07:41:50;155614.09;;;11.81;100.00
5350;BME280;2697;42.144;24.794;2022-11-23T07:44:15;155607.47;;;11.79;100.00
5350;BME280;2697;42.144;24.794;2022-11-23T07:46:40;155606.16;;;11.78;100.00
5350;BME280;2697;42.144;24.794;2022-11-23T07:49:06;155575.84;;;11.66;100.00
5350;BME280;2697;42.144;24.794;2022-11-23T07:51:31;155641.81;;;11.92;100.00
5350;BME280;2697;42.144;24.794;2022-11-23T07:53:58;155649.69;;;11.95;100.00
5350;BME280;2697;42.144;24.794;2022-11-23T07:56:23;155660.22;;;11.99;100.00
5350;BME280;2697;42.144;24.794;2022-11-23T07:58:49;155676.06;;;12.05;100.00
5350;BME280;2697;42.144;24.794;2022-11-23T08:01:18;155686.59;;;12.09;100.00
5350;BME280;2697;42.144;24.794;2022-11-23T08:03:44;155705.06;;;12.16;100.00
5350;BME280;2697;42.144;24.794;2022-11-23T08:06:11;155752.53;;;12.35;100.00
5350;BME280;2697;42.144;24.794;2022-11-23T08:08:37;155757.78;;;12.37;100.00
5350;BME280;2697;42.144;24.794;2022-11-23T08:11:06;155753.84;;;12.35;100.00
5350;BME280;2697;42.144;24.794;2022-11-23T08:13:32;155777.56;;;12.44;100.00
5350;BME280;2697;42.144;24.794;2022-11-23T08:16:02;155782.84;;;12.46;100.00
5350;BME280;2697;42.144;24.794;2022-11-23T08:18:27;155843.53;;;12.70;100.00
5350;BME280;2697;42.144;24.794;2022-11-23T08:20:53;155842.22;;;12.69;100.00
5350;BME280;2697;42.144;24.794;2022-11-23T08:23:18;155823.75;;;12.62;100.00
5350;BME280;2697;42.144;24.794;2022-11-23T08:25:44;155859.38;;;12.76;100.00
5350;BME280;2697;42.144;24.794;2022-11-23T08:28:10;155844.84;;;12.70;100.00
5350;BME280;2697;42.144;24.794;2022-11-23T08:30:36;155860.69;;;12.76;100.00
5350;BME280;2697;42.144;24.794;2022-11-23T08:33:03;155846.16;;;12.71;100.00
5350;BME280;2697;42.144;24.794;2022-11-23T08:35:29;155851.44;;;12.73;100.00
5350;BME280;2697;42.144;24.794;2022-11-23T08:37:54;155884.44;;;12.86;100.00
5350;BME280;2697;42.144;24.794;2022-11-23T08:40:19;155822.44;;;12.62;100.00
5350;BME280;2697;42.144;24.794;2022-11-23T08:42:45;155877.81;;;12.83;100.00
5350;BME280;2697;42.144;24.794;2022-11-23T08:45:11;155876.50;;;12.82;100.00
5350;BME280;2697;42.144;24.794;2022-11-23T08:47:36;155913.44;;;12.97;100.00
5350;BME280;2697;42.144;24.794;2022-11-23T08:50:02;155917.41;;;12.98;100.00
5350;BME280;2697;42.144;24.794;2022-11-23T08:52:27;155942.47;;;13.08;100.00
5350;BME280;2697;42.144;24.794;2022-11-23T08:54:53;155933.25;;;13.04;100.00
5350;BME280;2697;42.144;24.794;2022-11-23T08:57:18;155938.50;;;13.06;100.00
5350;BME280;2697;42.144;24.794;2022-11-23T08:59:44;155909.50;;;12.95;100.00
5350;BME280;2697;42.144;24.794;2022-11-23T09:02:12;155897.59;;;12.91;100.00
5350;BME280;2697;42.144;24.794;2022-11-23T09:04:39;155921.34;;;13.00;100.00
5350;BME280;2697;42.144;24.794;2022-11-23T09:07:04;155946.41;;;13.09;100.00
5350;BME280;2697;42.144;24.794;2022-11-23T09:09:29;155939.84;;;13.07;100.00
5350;BME280;2697;42.144;24.794;2022-11-23T09:11:55;155939.84;;;13.07;100.00
5350;BME280;2697;42.144;24.794;2022-11-23T09:14:20;155968.84;;;13.18;100.00
5350;BME280;2697;42.144;24.794;2022-11-23T09:16:46;155988.69;;;13.26;100.00
5350;BME280;2697;42.144;24.794;2022-11-23T09:19:12;155991.34;;;13.27;100.00
5350;BME280;2697;42.144;24.794;2022-11-23T09:21:38;155995.28;;;13.28;100.00
5350;BME280;2697;42.144;24.794;2022-11-23T09:24:06;155982.13;;;13.23;100.00
5350;BME280;2697;42.144;24.794;2022-11-23T09:26:32;155987.38;;;13.25;100.00
5350;BME280;2697;42.144;24.794;2022-11-23T09:28:59;156017.72;;;13.37;100.00
5350;BME280;2697;42.144;24.794;2022-11-23T09:31:24;156033.56;;;13.43;100.00
5350;BME280;2697;42.144;24.794;2022-11-23T09:33:52;156024.31;;;13.39;100.00
5350;BME280;2697;42.144;24.794;2022-11-23T09:36:18;156058.66;;;13.53;100.00
5350;BME280;2697;42.144;24.794;2022-11-23T09:38:43;156129.94;;;13.80;100.00
5350;BME280;2697;42.144;24.794;2022-11-23T09:41:20;156166.88;;;13.94;100.00
5350;BME280;2697;42.144;24.794;2022-11-23T09:49:44;156176.13;;;13.98;100.00
5350;BME280;2697;42.144;24.794;2022-11-23T09:52:18;156174.81;;;13.97;100.00
5350;BME280;2697;42.144;24.794;2022-11-23T09:54:46;156189.31;;;14.03;100.00
5350;BME280;2697;42.144;24.794;2022-11-23T09:57:18;156214.41;;;14.13;100.00
5350;BME280;2697;42.144;24.794;2022-11-23T09:59:53;156247.44;;;14.25;100.00
5350;BME280;2697;42.144;24.794;2022-11-23T10:02:23;156194.59;;;14.05;100.00
5350;BME280;2697;42.144;24.794;2022-11-23T10:04:54;156209.13;;;14.11;100.00
5350;BME280;2697;42.144;24.794;2022-11-23T10:15:14;156121.97;;;13.77;100.00
5350;BME280;2697;42.144;24.794;2022-11-23T10:26:02;156181.41;;;14.00;100.00
5350;BME280;2697;42.144;24.794;2022-11-23T10:28:29;156260.63;;;14.31;100.00
5350;BME280;2697;42.144;24.794;2022-11-23T10:31:06;156272.53;;;14.35;100.00
5350;BME280;2697;42.144;24.794;2022-11-23T10:36:14;156162.91;;;13.93;100.00
5350;BME280;2697;42.144;24.794;2022-11-23T10:38:40;156193.25;;;14.05;100.00
5350;BME280;2697;42.144;24.794;2022-11-23T10:41:11;156203.84;;;14.09;100.00
5350;BME280;2697;42.144;24.794;2022-11-23T10:44:04;156063.91;;;13.55;100.00
5350;BME280;2697;42.144;24.794;2022-11-23T10:49:16;156169.50;;;13.95;100.00
5350;BME280;2697;42.144;24.794;2022-11-23T10:54:26;156271.22;;;14.35;100.00
5350;BME280;2697;42.144;24.794;2022-11-23T10:56:54;156261.94;;;14.31;100.00
5350;BME280;2697;42.144;24.794;2022-11-23T10:59:30;156320.13;;;14.53;100.00
5350;BME280;2697;42.144;24.794;2022-11-23T11:02:14;156335.94;;;14.60;100.00
5350;BME280;2697;42.144;24.794;2022-11-23T11:04:40;156334.63;;;14.59;100.00
5350;BME280;2697;42.144;24.794;2022-11-23T11:07:25;156339.94;;;14.61;100.00
5350;BME280;2697;42.144;24.794;2022-11-23T11:10:01;156367.69;;;14.72;100.00
5350;BME280;2697;42.144;24.794;2022-11-23T11:12:29;156355.78;;;14.67;100.00
5350;BME280;2697;42.144;24.794;2022-11-23T11:17:31;156334.63;;;14.59;100.00
5350;BME280;2697;42.144;24.794;2022-11-23T11:19:57;156275.16;;;14.36;100.00
5350;BME280;2697;42.144;24.794;2022-11-23T11:22:40;156227.63;;;14.18;100.00
5350;BME280;2697;42.144;24.794;2022-11-23T11:25:06;156272.53;;;14.35;100.00
5350;BME280;2697;42.144;24.794;2022-11-23T11:27:51;156248.75;;;14.26;100.00
5350;BME280;2697;42.144;24.794;2022-11-23T11:30:21;156290.97;;;14.42;100.00
5350;BME280;2697;42.144;24.794;2022-11-23T11:33:19;156259.31;;;14.30;100.00
5350;BME280;2697;42.144;24.794;2022-11-23T11:35:50;156283.06;;;14.39;100.00
5350;BME280;2697;42.144;24.794;2022-11-23T11:38:26;156264.56;;;14.32;100.00
5350;BME280;2697;42.144;24.794;2022-11-23T11:41:00;156299.00;;;14.45;100.00
5350;BME280;2697;42.144;24.794;2022-11-23T11:43:33;156290.97;;;14.42;100.00
5350;BME280;2697;42.144;24.794;2022-11-23T11:46:21;156296.31;;;14.44;100.00
5350;BME280;2697;42.144;24.794;2022-11-23T11:48:56;156264.56;;;14.32;100.00
5350;BME280;2697;42.144;24.794;2022-11-23T11:56:46;156248.75;;;14.26;100.00
5350;BME280;2697;42.144;24.794;2022-11-23T11:59:38;156275.16;;;14.36;100.00
5350;BME280;2697;42.144;24.794;2022-11-23T12:02:26;156304.25;;;14.47;100.00
5350;BME280;2697;42.144;24.794;2022-11-23T12:05:09;156333.31;;;14.59;100.00
5350;BME280;2697;42.144;24.794;2022-11-23T12:12:41;156458.81;;;15.07;100.00
5350;BME280;2697;42.144;24.794;2022-11-23T12:15:19;156466.75;;;15.10;100.00
5350;BME280;2697;42.144;24.794;2022-11-23T12:23:04;156411.25;;;14.89;100.00
5350;BME280;2697;42.144;24.794;2022-11-23T12:25:36;156394.09;;;14.82;100.00
5350;BME280;2697;42.144;24.794;2022-11-23T12:42:23;156407.28;;;14.87;100.00
5350;BME280;2697;42.144;24.794;2022-11-23T12:45:34;156395.41;;;14.82;100.00
5350;BME280;2697;42.144;24.794;2022-11-23T12:53:40;156384.81;;;14.78;100.00
5350;BME280;2697;42.144;24.794;2022-11-23T12:56:12;156412.59;;;14.89;100.00
5350;BME280;2697;42.144;24.794;2022-11-23T12:58:43;156439.03;;;14.99;100.00
5350;BME280;2697;42.144;24.794;2022-11-23T13:01:30;156432.38;;;14.97;100.00
5350;BME280;2697;42.144;24.794;2022-11-23T13:22:43;156466.75;;;15.10;100.00
5350;BME280;2697;42.144;24.794;2022-11-23T13:32:56;156445.63;;;15.02;100.00
5350;BME280;2697;42.144;24.794;2022-11-23T13:40:28;156387.47;;;14.79;100.00
5350;BME280;2697;42.144;24.794;2022-11-23T13:43:03;156362.34;;;14.70;100.00
5350;BME280;2697;42.144;24.794;2022-11-23T13:45:33;156343.91;;;14.63;100.00
5350;BME280;2697;42.144;24.794;2022-11-23T13:50:37;156351.81;;;14.66;100.00
5350;BME280;2697;42.144;24.794;2022-11-23T13:53:23;156354.44;;;14.67;100.00
5350;BME280;2697;42.144;24.794;2022-11-23T13:55:51;156346.53;;;14.64;100.00
5350;BME280;2697;42.144;24.794;2022-11-23T14:08:43;156433.69;;;14.97;100.00
5350;BME280;2697;42.144;24.794;2022-11-23T14:11:11;156442.97;;;15.01;100.00
5350;BME280;2697;42.144;24.794;2022-11-23T14:13:39;156404.66;;;14.86;100.00
5350;BME280;2697;42.144;24.794;2022-11-23T14:16:12;156450.91;;;15.04;100.00
5350;BME280;2697;42.144;24.794;2022-11-23T14:32:42;156391.47;;;14.81;100.00
5350;BME280;2697;42.144;24.794;2022-11-23T14:35:23;156388.81;;;14.80;100.00
5350;BME280;2697;42.144;24.794;2022-11-23T14:38:27;156349.19;;;14.65;100.00
5350;BME280;2697;42.144;24.794;2022-11-23T14:41:33;156345.22;;;14.63;100.00
5350;BME280;2697;42.144;24.794;2022-11-23T14:44:01;156388.81;;;14.80;100.00
5350;BME280;2697;42.144;24.794;2022-11-23T14:46:26;156390.16;;;14.80;100.00
5350;BME280;2697;42.144;24.794;2022-11-23T14:49:03;156372.97;;;14.74;100.00
5350;BME280;2697;42.144;24.794;2022-11-23T14:51:29;156388.81;;;14.80;100.00
5350;BME280;2697;42.144;24.794;2022-11-23T14:53:58;156382.19;;;14.77;100.00
5350;BME280;2697;42.144;24.794;2022-11-23T14:56:33;156396.75;;;14.83;100.00
5350;BME280;2697;42.144;24.794;2022-11-23T15:02:51;156407.28;;;14.87;100.00
5350;BME280;2697;42.144;24.794;2022-11-23T15:05:22;156354.44;;;14.67;100.00
5350;BME280;2697;42.144;24.794;2022-11-23T15:07:56;156309.53;;;14.49;100.00
5350;BME280;2697;42.144;24.794;2022-11-23T15:10:46;156275.16;;;14.36;100.00
5350;BME280;2697;42.144;24.794;2022-11-23T15:13:27;156259.31;;;14.30;100.00
5350;BME280;2697;42.144;24.794;2022-11-23T15:15:55;156222.34;;;14.16;100.00
5350;BME280;2697;42.144;24.794;2022-11-23T15:18:30;156222.34;;;14.16;100.00
5350;BME280;2697;42.144;24.794;2022-11-23T15:20:58;156271.22;;;14.35;100.00